Bertha, Minnesota
Current Conditions -  °F | °C
As of 3:35 PM on Sunday 21 Dec 2014 (Local Time) from KADC Reporting Station
Haze Haze  
Wind Chill: 24°   Ceiling: 400
Heat Index: 32°   Visibility: 4mi
Dew Point: 30°   Wind: 9mph
Humidity: 93%   Direction: 160°SSE
Pressure: 29.64"   Gusts: NA
Location:  46.27°N, 95.06°W
Report Text: KADC 212135Z AUTO 16008KT 4SM BR OVC004 00/M01 A2964 RMK AO2
Loading
Personal Weather Stations






























Interactive Weather Map New forecast layout! Learn more

10-Day Weather Forecast

Advertisements
Track Severe Weather on mobile